Gulf Shores, Alabama
Current Conditions -  °F | °C
As of 3:35 PM on Friday 19 Dec 2014 (Local Time) from KJKA Reporting Station
Overcast Overcast  
Wind Chill: 52°   Ceiling: 6000
Heat Index: 52°   Visibility: 10mi
Dew Point: 47°   Wind: 7mph
Humidity: 83%   Direction: 50°NE
Pressure: 30.08"   Gusts: NA
Location:  30.27°N, 87.7°W
Report Text: KJKA 192135Z AUTO 05006KT 10SM SCT015 SCT042 OVC060 11/08 A3008 RMK AO2 T01100082
Loading
Personal Weather Stations






























Interactive Weather Map New forecast layout! Learn more

10-Day Weather Forecast

Advertisements
Track Severe Weather on mobile